sensor_id;sensor_type;location;lat;lon;timestamp;P1;durP1;ratioP1;P2;durP2;ratioP2
86201;SDS011;76853;48.008;20.694;2024-02-26T00:00:24;33.20;;;33.20;;
86201;SDS011;76853;48.008;20.694;2024-02-26T00:01:27;27.42;;;27.40;;
86201;SDS011;76853;48.008;20.694;2024-02-26T00:02:36;27.17;;;26.82;;
86201;SDS011;76853;48.008;20.694;2024-02-26T00:03:43;28.65;;;28.52;;
86201;SDS011;76853;48.008;20.694;2024-02-26T00:04:48;37.23;;;36.47;;
86201;SDS011;76853;48.008;20.694;2024-02-26T00:05:53;40.45;;;39.53;;
86201;SDS011;76853;48.008;20.694;2024-02-26T00:06:56;43.27;;;42.07;;
86201;SDS011;76853;48.008;20.694;2024-02-26T00:08:04;41.37;;;41.08;;
86201;SDS011;76853;48.008;20.694;2024-02-26T00:09:07;36.62;;;36.27;;
86201;SDS011;76853;48.008;20.694;2024-02-26T00:10:13;34.52;;;33.98;;
86201;SDS011;76853;48.008;20.694;2024-02-26T00:11:17;31.50;;;31.48;;
86201;SDS011;76853;48.008;20.694;2024-02-26T00:12:20;32.10;;;31.92;;
86201;SDS011;76853;48.008;20.694;2024-02-26T00:13:23;35.18;;;35.03;;
86201;SDS011;76853;48.008;20.694;2024-02-26T00:14:27;36.18;;;35.50;;
86201;SDS011;76853;48.008;20.694;2024-02-26T00:15:31;33.60;;;33.23;;
86201;SDS011;76853;48.008;20.694;2024-02-26T00:16:35;27.28;;;27.28;;
86201;SDS011;76853;48.008;20.694;2024-02-26T00:17:39;25.95;;;25.95;;
86201;SDS011;76853;48.008;20.694;2024-02-26T00:18:43;25.47;;;25.47;;
86201;SDS011;76853;48.008;20.694;2024-02-26T00:19:52;25.25;;;25.25;;
86201;SDS011;76853;48.008;20.694;2024-02-26T00:20:56;24.63;;;24.63;;
86201;SDS011;76853;48.008;20.694;2024-02-26T00:21:59;26.43;;;26.43;;
86201;SDS011;76853;48.008;20.694;2024-02-26T00:23:04;27.37;;;27.33;;
86201;SDS011;76853;48.008;20.694;2024-02-26T00:24:09;27.43;;;27.43;;
86201;SDS011;76853;48.008;20.694;2024-02-26T00:25:15;27.85;;;27.85;;
86201;SDS011;76853;48.008;20.694;2024-02-26T00:26:19;27.43;;;27.33;;
86201;SDS011;76853;48.008;20.694;2024-02-26T00:27:22;27.72;;;27.70;;
86201;SDS011;76853;48.008;20.694;2024-02-26T00:28:25;28.08;;;28.08;;
86201;SDS011;76853;48.008;20.694;2024-02-26T00:29:30;27.12;;;27.10;;
86201;SDS011;76853;48.008;20.694;2024-02-26T00:30:35;27.42;;;27.42;;
86201;SDS011;76853;48.008;20.694;2024-02-26T00:31:38;27.48;;;27.48;;
86201;SDS011;76853;48.008;20.694;2024-02-26T00:32:45;27.27;;;27.27;;
86201;SDS011;76853;48.008;20.694;2024-02-26T00:33:48;27.37;;;27.37;;
86201;SDS011;76853;48.008;20.694;2024-02-26T00:34:54;28.08;;;27.95;;
86201;SDS011;76853;48.008;20.694;2024-02-26T00:35:57;27.48;;;27.33;;
86201;SDS011;76853;48.008;20.694;2024-02-26T00:37:01;27.18;;;26.93;;
86201;SDS011;76853;48.008;20.694;2024-02-26T00:38:05;26.23;;;26.23;;
86201;SDS011;76853;48.008;20.694;2024-02-26T00:39:08;25.98;;;25.92;;
86201;SDS011;76853;48.008;20.694;2024-02-26T00:40:16;25.20;;;25.20;;
86201;SDS011;76853;48.008;20.694;2024-02-26T00:41:19;24.98;;;24.97;;
86201;SDS011;76853;48.008;20.694;2024-02-26T00:42:25;24.60;;;24.60;;
86201;SDS011;76853;48.008;20.694;2024-02-26T00:43:29;26.25;;;26.12;;
86201;SDS011;76853;48.008;20.694;2024-02-26T00:44:32;26.05;;;26.05;;
86201;SDS011;76853;48.008;20.694;2024-02-26T00:45:35;28.47;;;28.43;;
86201;SDS011;76853;48.008;20.694;2024-02-26T00:46:38;27.83;;;27.72;;
86201;SDS011;76853;48.008;20.694;2024-02-26T00:47:42;26.55;;;26.55;;
86201;SDS011;76853;48.008;20.694;2024-02-26T00:48:48;26.28;;;26.28;;
86201;SDS011;76853;48.008;20.694;2024-02-26T00:49:51;25.78;;;25.78;;
86201;SDS011;76853;48.008;20.694;2024-02-26T00:50:56;26.97;;;26.95;;
86201;SDS011;76853;48.008;20.694;2024-02-26T00:51:59;26.48;;;26.48;;
86201;SDS011;76853;48.008;20.694;2024-02-26T00:53:05;25.02;;;24.98;;
86201;SDS011;76853;48.008;20.694;2024-02-26T00:54:08;26.90;;;26.68;;
86201;SDS011;76853;48.008;20.694;2024-02-26T00:55:12;27.10;;;26.72;;
86201;SDS011;76853;48.008;20.694;2024-02-26T00:56:15;26.43;;;26.28;;
86201;SDS011;76853;48.008;20.694;2024-02-26T00:57:21;26.48;;;26.07;;
86201;SDS011;76853;48.008;20.694;2024-02-26T00:58:25;26.02;;;25.77;;
86201;SDS011;76853;48.008;20.694;2024-02-26T00:59:28;24.67;;;24.67;;
86201;SDS011;76853;48.008;20.694;2024-02-26T01:00:32;26.10;;;26.10;;
86201;SDS011;76853;48.008;20.694;2024-02-26T01:01:36;26.80;;;26.80;;
86201;SDS011;76853;48.008;20.694;2024-02-26T01:02:39;25.23;;;25.12;;
86201;SDS011;76853;48.008;20.694;2024-02-26T01:03:46;26.27;;;26.07;;
86201;SDS011;76853;48.008;20.694;2024-02-26T01:04:52;26.52;;;26.50;;
86201;SDS011;76853;48.008;20.694;2024-02-26T01:05:55;26.90;;;26.63;;
86201;SDS011;76853;48.008;20.694;2024-02-26T01:07:01;28.50;;;27.38;;
86201;SDS011;76853;48.008;20.694;2024-02-26T01:08:06;27.37;;;26.88;;
86201;SDS011;76853;48.008;20.694;2024-02-26T01:09:09;25.38;;;25.38;;
86201;SDS011;76853;48.008;20.694;2024-02-26T01:10:13;25.47;;;25.47;;
86201;SDS011;76853;48.008;20.694;2024-02-26T01:11:16;26.82;;;26.70;;
86201;SDS011;76853;48.008;20.694;2024-02-26T01:12:19;26.83;;;26.83;;
86201;SDS011;76853;48.008;20.694;2024-02-26T01:13:22;26.42;;;26.28;;
86201;SDS011;76853;48.008;20.694;2024-02-26T01:14:25;26.28;;;26.28;;
86201;SDS011;76853;48.008;20.694;2024-02-26T01:15:30;27.32;;;27.28;;
86201;SDS011;76853;48.008;20.694;2024-02-26T01:16:34;27.50;;;27.38;;
86201;SDS011;76853;48.008;20.694;2024-02-26T01:17:38;26.17;;;26.07;;
86201;SDS011;76853;48.008;20.694;2024-02-26T01:18:43;27.73;;;27.62;;
86201;SDS011;76853;48.008;20.694;2024-02-26T01:19:48;26.95;;;26.93;;
86201;SDS011;76853;48.008;20.694;2024-02-26T01:20:53;26.63;;;26.62;;
86201;SDS011;76853;48.008;20.694;2024-02-26T01:21:57;26.82;;;26.70;;
86201;SDS011;76853;48.008;20.694;2024-02-26T01:23:15;26.77;;;26.77;;
86201;SDS011;76853;48.008;20.694;2024-02-26T01:24:19;26.82;;;26.73;;
86201;SDS011;76853;48.008;20.694;2024-02-26T01:25:25;27.05;;;26.62;;
86201;SDS011;76853;48.008;20.694;2024-02-26T01:26:28;25.87;;;25.85;;
86201;SDS011;76853;48.008;20.694;2024-02-26T01:27:33;26.40;;;26.38;;
86201;SDS011;76853;48.008;20.694;2024-02-26T01:28:37;25.73;;;25.73;;
86201;SDS011;76853;48.008;20.694;2024-02-26T01:29:44;26.37;;;26.37;;
86201;SDS011;76853;48.008;20.694;2024-02-26T01:30:51;26.02;;;26.02;;
86201;SDS011;76853;48.008;20.694;2024-02-26T01:31:54;26.08;;;26.00;;
86201;SDS011;76853;48.008;20.694;2024-02-26T01:32:57;25.57;;;25.57;;
86201;SDS011;76853;48.008;20.694;2024-02-26T01:34:02;25.15;;;25.15;;
86201;SDS011;76853;48.008;20.694;2024-02-26T01:35:06;27.73;;;27.03;;
86201;SDS011;76853;48.008;20.694;2024-02-26T01:36:13;25.05;;;24.92;;
86201;SDS011;76853;48.008;20.694;2024-02-26T01:37:16;26.18;;;25.67;;
86201;SDS011;76853;48.008;20.694;2024-02-26T01:38:23;25.45;;;24.92;;
86201;SDS011;76853;48.008;20.694;2024-02-26T01:39:26;24.67;;;24.62;;
86201;SDS011;76853;48.008;20.694;2024-02-26T01:40:32;24.03;;;24.00;;
86201;SDS011;76853;48.008;20.694;2024-02-26T01:41:35;23.92;;;23.87;;
86201;SDS011;76853;48.008;20.694;2024-02-26T01:42:38;24.67;;;24.50;;
86201;SDS011;76853;48.008;20.694;2024-02-26T01:43:42;24.33;;;24.28;;
86201;SDS011;76853;48.008;20.694;2024-02-26T01:44:45;26.68;;;26.17;;
86201;SDS011;76853;48.008;20.694;2024-02-26T01:45:48;25.18;;;25.00;;
86201;SDS011;76853;48.008;20.694;2024-02-26T01:46:53;25.82;;;25.70;;
86201;SDS011;76853;48.008;20.694;2024-02-26T01:47:57;24.37;;;24.23;;
86201;SDS011;76853;48.008;20.694;2024-02-26T01:49:01;27.35;;;27.30;;
86201;SDS011;76853;48.008;20.694;2024-02-26T01:50:06;27.80;;;27.80;;
86201;SDS011;76853;48.008;20.694;2024-02-26T01:51:11;27.25;;;27.13;;
86201;SDS011;76853;48.008;20.694;2024-02-26T01:52:17;27.83;;;27.55;;
86201;SDS011;76853;48.008;20.694;2024-02-26T01:53:22;26.88;;;26.70;;
86201;SDS011;76853;48.008;20.694;2024-02-26T01:54:27;30.38;;;29.35;;
86201;SDS011;76853;48.008;20.694;2024-02-26T01:55:32;33.15;;;32.02;;
86201;SDS011;76853;48.008;20.694;2024-02-26T01:56:37;36.28;;;35.53;;
86201;SDS011;76853;48.008;20.694;2024-02-26T01:57:43;33.50;;;33.25;;
86201;SDS011;76853;48.008;20.694;2024-02-26T01:58:48;35.12;;;34.93;;
86201;SDS011;76853;48.008;20.694;2024-02-26T01:59:52;39.85;;;39.55;;
86201;SDS011;76853;48.008;20.694;2024-02-26T02:00:57;43.93;;;43.48;;
86201;SDS011;76853;48.008;20.694;2024-02-26T02:02:03;45.63;;;44.88;;
86201;SDS011;76853;48.008;20.694;2024-02-26T02:03:13;42.47;;;41.73;;
86201;SDS011;76853;48.008;20.694;2024-02-26T02:04:16;45.07;;;44.15;;
86201;SDS011;76853;48.008;20.694;2024-02-26T02:05:22;46.77;;;45.78;;
86201;SDS011;76853;48.008;20.694;2024-02-26T02:06:27;47.57;;;46.60;;
86201;SDS011;76853;48.008;20.694;2024-02-26T02:07:31;50.12;;;49.15;;
86201;SDS011;76853;48.008;20.694;2024-02-26T02:08:35;53.12;;;52.57;;
86201;SDS011;76853;48.008;20.694;2024-02-26T02:09:38;53.60;;;52.88;;
86201;SDS011;76853;48.008;20.694;2024-02-26T02:10:45;52.30;;;51.90;;
86201;SDS011;76853;48.008;20.694;2024-02-26T02:11:50;44.73;;;44.22;;
86201;SDS011;76853;48.008;20.694;2024-02-26T02:12:54;39.83;;;39.40;;
86201;SDS011;76853;48.008;20.694;2024-02-26T02:13:57;37.22;;;37.08;;
86201;SDS011;76853;48.008;20.694;2024-02-26T02:15:00;37.17;;;36.83;;
86201;SDS011;76853;48.008;20.694;2024-02-26T02:16:06;35.45;;;34.88;;
86201;SDS011;76853;48.008;20.694;2024-02-26T02:17:11;33.67;;;33.43;;
86201;SDS011;76853;48.008;20.694;2024-02-26T02:18:15;33.15;;;32.45;;
86201;SDS011;76853;48.008;20.694;2024-02-26T02:19:19;33.88;;;33.65;;
86201;SDS011;76853;48.008;20.694;2024-02-26T02:20:32;35.87;;;35.68;;
86201;SDS011;76853;48.008;20.694;2024-02-26T02:21:37;37.38;;;36.77;;
86201;SDS011;76853;48.008;20.694;2024-02-26T02:22:44;37.90;;;37.37;;
86201;SDS011;76853;48.008;20.694;2024-02-26T02:23:48;35.05;;;34.65;;
86201;SDS011;76853;48.008;20.694;2024-02-26T02:24:53;35.57;;;34.82;;
86201;SDS011;76853;48.008;20.694;2024-02-26T02:25:57;33.55;;;33.33;;
86201;SDS011;76853;48.008;20.694;2024-02-26T02:27:04;34.03;;;33.15;;
86201;SDS011;76853;48.008;20.694;2024-02-26T02:28:08;33.47;;;32.77;;
86201;SDS011;76853;48.008;20.694;2024-02-26T02:29:13;33.07;;;32.82;;
86201;SDS011;76853;48.008;20.694;2024-02-26T02:30:18;31.85;;;31.60;;
86201;SDS011;76853;48.008;20.694;2024-02-26T02:31:23;35.67;;;35.55;;
86201;SDS011;76853;48.008;20.694;2024-02-26T02:32:26;45.67;;;45.27;;
86201;SDS011;76853;48.008;20.694;2024-02-26T02:33:33;49.97;;;49.57;;
86201;SDS011;76853;48.008;20.694;2024-02-26T02:34:37;44.78;;;44.65;;
86201;SDS011;76853;48.008;20.694;2024-02-26T02:35:42;40.42;;;40.00;;
86201;SDS011;76853;48.008;20.694;2024-02-26T02:36:51;38.20;;;37.75;;
86201;SDS011;76853;48.008;20.694;2024-02-26T02:37:56;37.22;;;36.42;;
86201;SDS011;76853;48.008;20.694;2024-02-26T02:39:00;38.00;;;37.60;;
86201;SDS011;76853;48.008;20.694;2024-02-26T02:40:04;36.72;;;35.87;;
86201;SDS011;76853;48.008;20.694;2024-02-26T02:41:08;34.62;;;34.13;;
86201;SDS011;76853;48.008;20.694;2024-02-26T02:42:11;33.45;;;33.20;;
86201;SDS011;76853;48.008;20.694;2024-02-26T02:43:15;40.87;;;40.40;;
86201;SDS011;76853;48.008;20.694;2024-02-26T02:44:18;45.47;;;45.18;;
86201;SDS011;76853;48.008;20.694;2024-02-26T02:45:21;42.03;;;41.78;;
86201;SDS011;76853;48.008;20.694;2024-02-26T02:46:27;37.33;;;36.93;;
86201;SDS011;76853;48.008;20.694;2024-02-26T02:47:31;36.57;;;36.23;;
86201;SDS011;76853;48.008;20.694;2024-02-26T02:48:34;39.08;;;38.87;;
86201;SDS011;76853;48.008;20.694;2024-02-26T02:49:37;38.67;;;38.38;;
86201;SDS011;76853;48.008;20.694;2024-02-26T02:50:41;38.07;;;37.60;;
86201;SDS011;76853;48.008;20.694;2024-02-26T02:51:45;38.35;;;38.07;;
86201;SDS011;76853;48.008;20.694;2024-02-26T02:52:48;35.03;;;34.55;;
86201;SDS011;76853;48.008;20.694;2024-02-26T02:53:55;36.87;;;36.38;;
86201;SDS011;76853;48.008;20.694;2024-02-26T02:54:59;37.38;;;36.93;;
86201;SDS011;76853;48.008;20.694;2024-02-26T02:56:02;40.33;;;39.70;;
86201;SDS011;76853;48.008;20.694;2024-02-26T02:57:06;42.30;;;41.68;;
86201;SDS011;76853;48.008;20.694;2024-02-26T02:58:09;41.55;;;41.00;;
86201;SDS011;76853;48.008;20.694;2024-02-26T02:59:12;44.30;;;43.52;;
86201;SDS011;76853;48.008;20.694;2024-02-26T03:00:16;45.58;;;44.48;;
86201;SDS011;76853;48.008;20.694;2024-02-26T03:01:19;41.15;;;40.77;;
86201;SDS011;76853;48.008;20.694;2024-02-26T03:02:26;46.05;;;45.38;;
86201;SDS011;76853;48.008;20.694;2024-02-26T03:03:29;49.13;;;48.48;;
86201;SDS011;76853;48.008;20.694;2024-02-26T03:04:34;49.47;;;48.95;;
86201;SDS011;76853;48.008;20.694;2024-02-26T03:05:38;55.22;;;54.45;;
86201;SDS011;76853;48.008;20.694;2024-02-26T03:06:41;57.82;;;57.15;;
86201;SDS011;76853;48.008;20.694;2024-02-26T03:07:47;52.70;;;52.05;;
86201;SDS011;76853;48.008;20.694;2024-02-26T03:08:50;48.80;;;48.32;;
86201;SDS011;76853;48.008;20.694;2024-02-26T03:09:55;53.45;;;52.77;;
86201;SDS011;76853;48.008;20.694;2024-02-26T03:10:58;54.72;;;54.10;;
86201;SDS011;76853;48.008;20.694;2024-02-26T03:12:02;54.70;;;53.95;;
86201;SDS011;76853;48.008;20.694;2024-02-26T03:13:06;53.43;;;52.72;;
86201;SDS011;76853;48.008;20.694;2024-02-26T03:14:10;54.07;;;53.10;;
86201;SDS011;76853;48.008;20.694;2024-02-26T03:15:13;51.33;;;50.68;;
86201;SDS011;76853;48.008;20.694;2024-02-26T03:16:17;52.02;;;51.17;;
86201;SDS011;76853;48.008;20.694;2024-02-26T03:17:21;52.37;;;51.72;;
86201;SDS011;76853;48.008;20.694;2024-02-26T03:18:29;49.73;;;49.03;;
86201;SDS011;76853;48.008;20.694;2024-02-26T03:19:33;53.37;;;52.42;;
86201;SDS011;76853;48.008;20.694;2024-02-26T03:20:37;53.70;;;52.93;;
86201;SDS011;76853;48.008;20.694;2024-02-26T03:21:40;53.75;;;52.83;;
86201;SDS011;76853;48.008;20.694;2024-02-26T03:22:43;53.45;;;52.27;;
86201;SDS011;76853;48.008;20.694;2024-02-26T03:23:47;53.62;;;52.53;;
86201;SDS011;76853;48.008;20.694;2024-02-26T03:24:51;51.77;;;50.55;;
86201;SDS011;76853;48.008;20.694;2024-02-26T03:25:55;52.72;;;49.55;;
86201;SDS011;76853;48.008;20.694;2024-02-26T03:26:58;48.82;;;45.60;;
86201;SDS011;76853;48.008;20.694;2024-02-26T03:28:02;46.57;;;43.60;;
86201;SDS011;76853;48.008;20.694;2024-02-26T03:29:05;49.88;;;45.52;;
86201;SDS011;76853;48.008;20.694;2024-02-26T03:30:09;58.95;;;50.42;;
86201;SDS011;76853;48.008;20.694;2024-02-26T03:31:14;63.42;;;51.53;;
86201;SDS011;76853;48.008;20.694;2024-02-26T03:32:17;59.97;;;48.60;;
86201;SDS011;76853;48.008;20.694;2024-02-26T03:33:20;67.35;;;51.30;;
86201;SDS011;76853;48.008;20.694;2024-02-26T03:34:24;40.35;;;34.97;;
86201;SDS011;76853;48.008;20.694;2024-02-26T03:35:30;37.32;;;34.68;;
86201;SDS011;76853;48.008;20.694;2024-02-26T03:36:33;44.07;;;38.42;;
86201;SDS011;76853;48.008;20.694;2024-02-26T03:37:36;52.73;;;43.17;;
86201;SDS011;76853;48.008;20.694;2024-02-26T03:38:40;49.23;;;41.15;;
86201;SDS011;76853;48.008;20.694;2024-02-26T03:39:44;48.67;;;42.53;;
86201;SDS011;76853;48.008;20.694;2024-02-26T03:40:47;51.07;;;44.83;;
86201;SDS011;76853;48.008;20.694;2024-02-26T03:41:52;43.35;;;41.38;;
86201;SDS011;76853;48.008;20.694;2024-02-26T03:42:55;42.37;;;41.03;;
86201;SDS011;76853;48.008;20.694;2024-02-26T03:44:00;41.50;;;40.15;;
86201;SDS011;76853;48.008;20.694;2024-02-26T03:45:03;41.77;;;40.35;;
86201;SDS011;76853;48.008;20.694;2024-02-26T03:46:09;42.80;;;40.60;;
86201;SDS011;76853;48.008;20.694;2024-02-26T03:47:17;36.75;;;35.82;;
86201;SDS011;76853;48.008;20.694;2024-02-26T03:48:20;42.82;;;41.97;;
86201;SDS011;76853;48.008;20.694;2024-02-26T03:49:24;48.73;;;47.12;;
86201;SDS011;76853;48.008;20.694;2024-02-26T03:50:27;50.63;;;47.52;;
86201;SDS011;76853;48.008;20.694;2024-02-26T03:51:31;50.43;;;48.73;;
86201;SDS011;76853;48.008;20.694;2024-02-26T03:52:36;52.85;;;51.65;;
86201;SDS011;76853;48.008;20.694;2024-02-26T03:53:39;53.20;;;52.50;;
86201;SDS011;76853;48.008;20.694;2024-02-26T03:54:43;48.85;;;48.07;;
86201;SDS011;76853;48.008;20.694;2024-02-26T03:55:46;41.92;;;40.68;;
86201;SDS011;76853;48.008;20.694;2024-02-26T03:56:49;37.07;;;36.62;;
86201;SDS011;76853;48.008;20.694;2024-02-26T03:57:53;38.25;;;37.93;;
86201;SDS011;76853;48.008;20.694;2024-02-26T03:58:56;39.85;;;39.57;;
86201;SDS011;76853;48.008;20.694;2024-02-26T03:59:59;46.97;;;46.10;;
86201;SDS011;76853;48.008;20.694;2024-02-26T04:01:12;44.53;;;43.28;;
86201;SDS011;76853;48.008;20.694;2024-02-26T04:02:15;41.87;;;41.08;;
86201;SDS011;76853;48.008;20.694;2024-02-26T04:03:19;42.30;;;41.75;;
86201;SDS011;76853;48.008;20.694;2024-02-26T04:04:22;40.98;;;40.60;;
86201;SDS011;76853;48.008;20.694;2024-02-26T04:05:28;41.67;;;41.17;;
86201;SDS011;76853;48.008;20.694;2024-02-26T04:06:31;43.23;;;42.63;;
86201;SDS011;76853;48.008;20.694;2024-02-26T04:07:34;47.33;;;46.62;;
86201;SDS011;76853;48.008;20.694;2024-02-26T04:08:38;46.78;;;45.95;;
86201;SDS011;76853;48.008;20.694;2024-02-26T04:09:42;43.72;;;43.00;;
86201;SDS011;76853;48.008;20.694;2024-02-26T04:10:46;43.47;;;43.08;;
86201;SDS011;76853;48.008;20.694;2024-02-26T04:11:49;43.45;;;42.92;;
86201;SDS011;76853;48.008;20.694;2024-02-26T04:12:52;42.22;;;41.57;;
86201;SDS011;76853;48.008;20.694;2024-02-26T04:13:56;45.13;;;44.33;;
86201;SDS011;76853;48.008;20.694;2024-02-26T04:14:59;46.82;;;46.05;;
86201;SDS011;76853;48.008;20.694;2024-02-26T04:16:03;46.48;;;45.73;;
86201;SDS011;76853;48.008;20.694;2024-02-26T04:17:07;39.78;;;39.32;;
86201;SDS011;76853;48.008;20.694;2024-02-26T04:18:10;41.80;;;41.23;;
86201;SDS011;76853;48.008;20.694;2024-02-26T04:19:15;48.00;;;46.70;;
86201;SDS011;76853;48.008;20.694;2024-02-26T04:20:18;48.38;;;47.15;;
86201;SDS011;76853;48.008;20.694;2024-02-26T04:21:22;49.00;;;48.03;;
86201;SDS011;76853;48.008;20.694;2024-02-26T04:22:25;47.68;;;46.15;;
86201;SDS011;76853;48.008;20.694;2024-02-26T04:23:29;44.85;;;43.67;;
86201;SDS011;76853;48.008;20.694;2024-02-26T04:24:35;42.62;;;41.93;;
86201;SDS011;76853;48.008;20.694;2024-02-26T04:25:39;44.02;;;42.98;;
86201;SDS011;76853;48.008;20.694;2024-02-26T04:26:42;44.63;;;43.77;;
86201;SDS011;76853;48.008;20.694;2024-02-26T04:27:47;44.92;;;43.90;;
86201;SDS011;76853;48.008;20.694;2024-02-26T04:28:50;45.50;;;44.13;;
86201;SDS011;76853;48.008;20.694;2024-02-26T04:29:55;43.70;;;42.68;;
86201;SDS011;76853;48.008;20.694;2024-02-26T04:30:58;42.80;;;41.73;;
86201;SDS011;76853;48.008;20.694;2024-02-26T04:32:01;42.25;;;41.62;;
86201;SDS011;76853;48.008;20.694;2024-02-26T04:33:05;41.05;;;40.55;;
86201;SDS011;76853;48.008;20.694;2024-02-26T04:34:08;41.82;;;41.13;;
86201;SDS011;76853;48.008;20.694;2024-02-26T04:35:17;43.25;;;42.32;;
86201;SDS011;76853;48.008;20.694;2024-02-26T04:36:20;42.57;;;41.68;;
86201;SDS011;76853;48.008;20.694;2024-02-26T04:37:27;40.30;;;39.37;;
86201;SDS011;76853;48.008;20.694;2024-02-26T04:38:34;39.75;;;38.97;;
86201;SDS011;76853;48.008;20.694;2024-02-26T04:39:39;39.88;;;39.27;;
86201;SDS011;76853;48.008;20.694;2024-02-26T04:40:42;40.52;;;39.77;;
86201;SDS011;76853;48.008;20.694;2024-02-26T04:41:45;40.28;;;39.62;;
86201;SDS011;76853;48.008;20.694;2024-02-26T04:42:50;38.77;;;38.25;;
86201;SDS011;76853;48.008;20.694;2024-02-26T04:43:53;38.65;;;38.07;;
86201;SDS011;76853;48.008;20.694;2024-02-26T04:44:56;36.75;;;35.90;;
86201;SDS011;76853;48.008;20.694;2024-02-26T04:46:00;37.17;;;36.50;;
86201;SDS011;76853;48.008;20.694;2024-02-26T04:47:03;36.88;;;36.37;;
86201;SDS011;76853;48.008;20.694;2024-02-26T04:48:06;36.55;;;35.95;;
86201;SDS011;76853;48.008;20.694;2024-02-26T04:49:12;36.88;;;36.27;;
86201;SDS011;76853;48.008;20.694;2024-02-26T04:50:16;37.45;;;36.58;;
86201;SDS011;76853;48.008;20.694;2024-02-26T04:51:19;38.27;;;37.50;;
86201;SDS011;76853;48.008;20.694;2024-02-26T04:52:22;37.08;;;36.57;;
86201;SDS011;76853;48.008;20.694;2024-02-26T04:53:26;39.77;;;39.20;;
86201;SDS011;76853;48.008;20.694;2024-02-26T04:54:29;41.33;;;40.62;;
86201;SDS011;76853;48.008;20.694;2024-02-26T04:55:37;42.62;;;42.18;;
86201;SDS011;76853;48.008;20.694;2024-02-26T04:56:40;44.58;;;43.93;;
86201;SDS011;76853;48.008;20.694;2024-02-26T04:57:44;39.68;;;39.13;;
86201;SDS011;76853;48.008;20.694;2024-02-26T04:58:47;37.98;;;37.27;;
86201;SDS011;76853;48.008;20.694;2024-02-26T04:59:51;38.05;;;37.55;;
86201;SDS011;76853;48.008;20.694;2024-02-26T05:00:55;39.08;;;38.55;;
86201;SDS011;76853;48.008;20.694;2024-02-26T05:01:58;37.40;;;36.45;;
86201;SDS011;76853;48.008;20.694;2024-02-26T05:03:02;36.57;;;35.62;;
86201;SDS011;76853;48.008;20.694;2024-02-26T05:04:05;36.05;;;35.47;;
86201;SDS011;76853;48.008;20.694;2024-02-26T05:05:09;34.42;;;33.80;;
86201;SDS011;76853;48.008;20.694;2024-02-26T05:06:12;34.20;;;33.32;;
86201;SDS011;76853;48.008;20.694;2024-02-26T05:07:16;33.98;;;33.18;;
86201;SDS011;76853;48.008;20.694;2024-02-26T05:08:22;29.03;;;28.42;;
86201;SDS011;76853;48.008;20.694;2024-02-26T05:09:26;27.15;;;26.68;;
86201;SDS011;76853;48.008;20.694;2024-02-26T05:10:29;27.85;;;27.38;;
86201;SDS011;76853;48.008;20.694;2024-02-26T05:11:32;29.95;;;29.30;;
86201;SDS011;76853;48.008;20.694;2024-02-26T05:12:36;33.72;;;33.28;;
86201;SDS011;76853;48.008;20.694;2024-02-26T05:13:41;33.57;;;33.05;;
86201;SDS011;76853;48.008;20.694;2024-02-26T05:14:44;35.32;;;34.52;;
86201;SDS011;76853;48.008;20.694;2024-02-26T05:15:47;34.35;;;33.83;;
86201;SDS011;76853;48.008;20.694;2024-02-26T05:16:51;34.35;;;33.92;;
86201;SDS011;76853;48.008;20.694;2024-02-26T05:17:55;33.60;;;32.98;;
86201;SDS011;76853;48.008;20.694;2024-02-26T05:18:58;37.80;;;37.07;;
86201;SDS011;76853;48.008;20.694;2024-02-26T05:20:02;41.18;;;40.43;;
86201;SDS011;76853;48.008;20.694;2024-02-26T05:21:06;42.92;;;42.18;;
86201;SDS011;76853;48.008;20.694;2024-02-26T05:22:10;43.38;;;42.77;;
86201;SDS011;76853;48.008;20.694;2024-02-26T05:23:13;45.08;;;44.57;;
86201;SDS011;76853;48.008;20.694;2024-02-26T05:24:17;44.83;;;44.17;;
86201;SDS011;76853;48.008;20.694;2024-02-26T05:25:21;43.98;;;43.58;;
86201;SDS011;76853;48.008;20.694;2024-02-26T05:26:25;46.00;;;45.50;;
86201;SDS011;76853;48.008;20.694;2024-02-26T05:27:28;44.07;;;43.43;;
86201;SDS011;76853;48.008;20.694;2024-02-26T05:28:31;44.52;;;43.78;;
86201;SDS011;76853;48.008;20.694;2024-02-26T05:29:35;43.95;;;43.20;;
86201;SDS011;76853;48.008;20.694;2024-02-26T05:30:39;45.63;;;44.83;;
86201;SDS011;76853;48.008;20.694;2024-02-26T05:31:47;45.97;;;45.22;;
86201;SDS011;76853;48.008;20.694;2024-02-26T05:32:51;55.35;;;54.40;;
86201;SDS011;76853;48.008;20.694;2024-02-26T05:33:56;56.92;;;55.72;;
86201;SDS011;76853;48.008;20.694;2024-02-26T05:35:00;56.55;;;55.68;;
86201;SDS011;76853;48.008;20.694;2024-02-26T05:36:03;57.53;;;56.52;;
86201;SDS011;76853;48.008;20.694;2024-02-26T05:37:08;55.13;;;54.53;;
86201;SDS011;76853;48.008;20.694;2024-02-26T05:38:13;53.55;;;52.70;;
86201;SDS011;76853;48.008;20.694;2024-02-26T05:39:16;50.55;;;49.85;;
86201;SDS011;76853;48.008;20.694;2024-02-26T05:40:22;48.88;;;48.37;;
86201;SDS011;76853;48.008;20.694;2024-02-26T05:41:28;47.27;;;46.20;;
86201;SDS011;76853;48.008;20.694;2024-02-26T05:42:31;43.45;;;42.92;;
86201;SDS011;76853;48.008;20.694;2024-02-26T05:43:34;38.47;;;38.33;;
86201;SDS011;76853;48.008;20.694;2024-02-26T05:44:38;39.75;;;39.57;;
86201;SDS011;76853;48.008;20.694;2024-02-26T05:45:41;39.87;;;39.75;;
86201;SDS011;76853;48.008;20.694;2024-02-26T05:46:44;39.52;;;39.30;;
86201;SDS011;76853;48.008;20.694;2024-02-26T05:47:47;38.70;;;38.58;;
86201;SDS011;76853;48.008;20.694;2024-02-26T05:48:52;39.00;;;39.00;;
86201;SDS011;76853;48.008;20.694;2024-02-26T05:49:56;35.42;;;35.38;;
86201;SDS011;76853;48.008;20.694;2024-02-26T05:51:02;32.43;;;32.33;;
86201;SDS011;76853;48.008;20.694;2024-02-26T05:52:06;34.25;;;34.20;;
86201;SDS011;76853;48.008;20.694;2024-02-26T05:53:09;40.77;;;40.40;;
86201;SDS011;76853;48.008;20.694;2024-02-26T05:54:13;51.30;;;49.83;;
86201;SDS011;76853;48.008;20.694;2024-02-26T05:55:16;63.88;;;62.53;;
86201;SDS011;76853;48.008;20.694;2024-02-26T05:56:22;61.18;;;59.88;;
86201;SDS011;76853;48.008;20.694;2024-02-26T05:57:26;51.82;;;50.30;;
86201;SDS011;76853;48.008;20.694;2024-02-26T05:58:29;53.48;;;52.10;;
86201;SDS011;76853;48.008;20.694;2024-02-26T05:59:33;56.13;;;55.75;;
86201;SDS011;76853;48.008;20.694;2024-02-26T06:00:37;54.80;;;54.60;;
86201;SDS011;76853;48.008;20.694;2024-02-26T06:01:41;70.23;;;69.85;;
86201;SDS011;76853;48.008;20.694;2024-02-26T06:02:44;62.88;;;62.82;;
86201;SDS011;76853;48.008;20.694;2024-02-26T06:03:48;53.08;;;52.72;;
86201;SDS011;76853;48.008;20.694;2024-02-26T06:04:52;51.93;;;51.93;;
86201;SDS011;76853;48.008;20.694;2024-02-26T06:05:55;54.27;;;53.48;;
86201;SDS011;76853;48.008;20.694;2024-02-26T06:07:00;60.23;;;59.47;;
86201;SDS011;76853;48.008;20.694;2024-02-26T06:08:04;58.92;;;58.70;;
86201;SDS011;76853;48.008;20.694;2024-02-26T06:09:07;50.37;;;50.18;;
86201;SDS011;76853;48.008;20.694;2024-02-26T06:10:12;45.02;;;45.00;;